Time;durP1;ratioP1;P1;durP2;ratioP2;P2;SDS_P1;SDS_P2;PMS_P1;PMS_P2;Temp;Humidity;BMP_temperature;BMP_pressure;BME280_temperature;BME280_humidity;BME280_pressure;Samples;Min_cycle;Max_cycle;Signal;HPM_P1;HPM_P2
2021/06/03 00:02:01;;;;;;;6.72;4.08;;;;;;;13.65;100.00;100524.56;1747524;81;21128;-70
2021/06/03 00:04:28;;;;;;;4.28;3.33;;;;;;;13.66;100.00;100518.22;1739830;82;21352;-67
2021/06/03 00:06:57;;;;;;;5.72;3.95;;;;;;;13.68;100.00;100518.13;1769135;80;21006;-70
2021/06/03 00:09:26;;;;;;;5.60;4.10;;;;;;;13.69;100.00;100517.17;1768847;80;21682;-67
2021/06/03 00:11:53;;;;;;;8.15;4.60;;;;;;;13.70;100.00;100504.09;1755114;80;21041;-71
2021/06/03 00:14:21;;;;;;;4.70;3.65;;;;;;;13.70;100.00;100525.19;1740011;81;21513;-67
2021/06/03 00:16:48;;;;;;;4.58;2.80;;;;;;;13.69;100.00;100515.36;1739806;81;21041;-68
2021/06/03 00:19:16;;;;;;;3.42;2.45;;;;;;;13.69;100.00;100518.06;1740365;81;21351;-69
2021/06/03 00:21:45;;;;;;;4.15;2.77;;;;;;;13.69;100.00;100528.83;1741114;80;21041;-70
2021/06/03 00:24:14;;;;;;;2.90;2.47;;;;;;;13.67;100.00;100513.23;1740356;82;21510;-72
2021/06/03 00:26:41;;;;;;;2.65;2.37;;;;;;;13.69;100.00;100535.57;1740316;82;21177;-71
2021/06/03 00:29:09;;;;;;;2.72;2.22;;;;;;;13.68;100.00;100527.09;1740390;82;21036;-71
2021/06/03 00:31:37;;;;;;;3.22;2.30;;;;;;;13.68;100.00;100520.36;1743891;80;21046;-71
2021/06/03 00:34:03;;;;;;;2.65;2.22;;;;;;;13.69;100.00;100522.56;1740580;82;21506;-72
2021/06/03 00:36:30;;;;;;;2.37;2.10;;;;;;;13.70;100.00;100525.19;1740182;82;21666;-72
2021/06/03 00:38:57;;;;;;;4.45;2.20;;;;;;;13.70;100.00;100528.34;1740216;82;22185;-72
2021/06/03 00:41:24;;;;;;;2.55;2.12;;;;;;;13.69;100.00;100512.67;1740129;80;21128;-71
2021/06/03 00:43:51;;;;;;;2.33;2.12;;;;;;;13.70;100.00;100527.00;1740298;80;21187;-71
2021/06/03 00:46:18;;;;;;;4.40;2.95;;;;;;;13.69;100.00;100528.83;1740105;81;21376;-72
2021/06/03 00:48:46;;;;;;;4.97;3.08;;;;;;;13.68;100.00;100527.09;1740333;81;21043;-72
2021/06/03 00:51:14;;;;;;;2.87;2.58;;;;;;;13.68;100.00;100531.14;1740237;81;21138;-73
2021/06/03 00:53:43;;;;;;;4.05;3.02;;;;;;;13.67;100.00;100541.98;1751964;80;21041;-73
2021/06/03 00:56:11;;;;;;;4.58;2.62;;;;;;;13.65;100.00;100540.73;1771219;80;21064;-73
2021/06/03 00:58:37;;;;;;;3.12;2.70;;;;;;;13.64;100.00;100528.20;1757405;80;21552;-72
2021/06/03 01:01:06;;;;;;;5.58;3.12;;;;;;;13.61;100.00;100537.80;1747912;80;21481;-72
2021/06/03 01:03:33;;;;;;;6.10;3.55;;;;;;;13.59;100.00;100550.44;1748389;82;20957;-73
2021/06/03 01:06:07;;;;;;;4.62;3.35;;;;;;;13.58;100.00;100550.94;1747495;82;21076;-71
2021/06/03 01:08:40;;;;;;;5.75;3.17;;;;;;;13.59;100.00;100528.44;1745949;80;21458;-72
2021/06/03 01:11:33;;;;;;;4.87;3.90;;;;;;;13.58;100.00;100529.39;1745546;81;21096;-71
2021/06/03 01:14:10;;;;;;;5.08;3.50;;;;;;;13.59;100.00;100557.18;1765248;80;21084;-72
2021/06/03 01:16:37;;;;;;;8.40;3.27;;;;;;;13.58;100.00;100555.44;1777483;80;21396;-73
2021/06/03 01:19:13;;;;;;;4.72;3.35;;;;;;;13.56;100.00;100534.44;1758255;80;21096;-73
2021/06/03 01:21:49;;;;;;;3.80;3.20;;;;;;;13.54;100.00;100548.47;1748230;82;21060;-73
2021/06/03 01:24:29;;;;;;;4.37;2.80;;;;;;;13.52;100.00;100536.91;1748525;82;21593;-74
2021/06/03 01:27:03;;;;;;;3.42;2.92;;;;;;;13.52;100.00;100551.72;1748340;82;21027;-72
2021/06/03 01:29:57;;;;;;;3.65;2.77;;;;;;;13.52;100.00;100546.33;1749296;80;21117;-71
2021/06/03 01:32:26;;;;;;;5.53;3.00;;;;;;;13.50;100.00;100545.08;1748979;82;21068;-72
2021/06/03 01:34:54;;;;;;;3.50;3.20;;;;;;;13.46;100.00;100547.05;1748259;81;21040;-74
2021/06/03 01:37:21;;;;;;;3.87;2.92;;;;;;;13.43;100.00;100560.67;1750099;80;21684;-74
2021/06/03 01:39:49;;;;;;;3.70;3.27;;;;;;;13.41;100.00;100563.88;1719145;82;21072;-73
2021/06/03 01:42:17;;;;;;;5.12;3.10;;;;;;;13.36;100.00;100553.79;1748386;82;21452;-72
2021/06/03 01:44:45;;;;;;;6.25;3.10;;;;;;;13.35;100.00;100572.24;1748001;81;21845;-73
2021/06/03 01:47:14;;;;;;;4.55;3.12;;;;;;;13.29;100.00;100555.05;1747625;80;21072;-70
2021/06/03 01:49:42;;;;;;;4.65;3.10;;;;;;;13.26;100.00;100609.05;1710707;83;21082;-71
2021/06/03 01:52:11;;;;;;;4.17;3.20;;;;;;;13.23;100.00;100558.91;1685542;85;21013;-71
2021/06/03 01:54:38;;;;;;;5.00;3.72;;;;;;;13.21;100.00;100565.34;1713847;83;21601;-70
2021/06/03 01:57:12;;;;;;;9.10;3.33;;;;;;;13.20;100.00;100575.71;1711179;82;21060;-71
2021/06/03 01:59:39;;;;;;;5.12;3.58;;;;;;;13.19;100.00;100576.17;1713498;83;21039;-70
2021/06/03 02:02:06;;;;;;;6.22;3.30;;;;;;;13.17;100.00;100569.53;1714724;83;21743;-70
2021/06/03 02:04:32;;;;;;;5.55;3.33;;;;;;;13.18;100.00;100578.00;1714913;82;21594;-72
2021/06/03 02:07:01;;;;;;;5.08;3.67;;;;;;;13.16;100.00;100573.17;1710943;82;21052;-73
2021/06/03 02:09:28;;;;;;;6.53;4.05;;;;;;;13.15;100.00;100575.47;1710187;83;21502;-73
2021/06/03 02:11:56;;;;;;;10.23;4.15;;;;;;;13.17;100.00;100573.57;1710301;83;21132;-73
2021/06/03 02:14:28;;;;;;;7.92;4.67;;;;;;;13.18;100.00;100567.23;1689183;84;21724;-72
2021/06/03 02:17:09;;;;;;;8.30;4.55;;;;;;;13.16;100.00;100582.59;1694582;83;21028;-72
2021/06/03 02:19:53;;;;;;;6.22;4.08;;;;;;;13.14;100.00;100587.15;1748838;80;21120;-70
2021/06/03 02:22:22;;;;;;;6.08;4.33;;;;;;;13.13;100.00;100569.26;1776554;80;21128;-71
2021/06/03 02:24:49;;;;;;;6.33;3.98;;;;;;;13.14;100.00;100583.61;1776663;80;21119;-72
2021/06/03 02:27:17;;;;;;;4.78;4.28;;;;;;;13.14;100.00;100586.30;1776496;80;21056;-70
2021/06/03 02:29:45;;;;;;;5.20;3.87;;;;;;;13.14;100.00;100588.50;1776819;80;21031;-71
2021/06/03 02:32:15;;;;;;;8.50;4.45;;;;;;;13.16;100.00;100587.09;1709396;83;21147;-71
2021/06/03 02:34:47;;;;;;;5.95;4.42;;;;;;;13.18;100.00;100598.66;1746134;80;21057;-74
2021/06/03 02:37:15;;;;;;;6.20;4.92;;;;;;;13.17;100.00;100587.03;1679399;84;21136;-72
2021/06/03 02:39:46;;;;;;;8.00;4.95;;;;;;;13.20;100.00;100589.17;1729867;82;21433;-72
2021/06/03 02:42:13;;;;;;;7.55;5.83;;;;;;;13.20;100.00;100585.13;1676272;83;21111;-71
2021/06/03 02:44:41;;;;;;;7.65;6.00;;;;;;;13.20;100.00;100583.78;1776290;80;21131;-72
2021/06/03 02:47:08;;;;;;;10.28;5.55;;;;;;;13.22;100.00;100588.63;1745667;80;21029;-72
2021/06/03 02:49:35;;;;;;;7.50;4.90;;;;;;;13.22;100.00;100600.73;1776584;80;21052;-70
2021/06/03 02:52:06;;;;;;;6.42;5.20;;;;;;;13.23;100.00;100606.52;1776970;80;21528;-72
2021/06/03 02:54:34;;;;;;;10.25;5.70;;;;;;;13.23;100.00;100601.98;1776311;80;21683;-72
2021/06/03 02:57:01;;;;;;;11.73;6.33;;;;;;;13.23;100.00;100615.94;1770417;80;21497;-72
2021/06/03 02:59:28;;;;;;;14.25;9.25;;;;;;;13.22;100.00;100611.50;1747197;82;21071;-71
2021/06/03 03:01:55;;;;;;;16.90;12.00;;;;;;;13.22;100.00;100597.55;1747685;82;21538;-73
2021/06/03 03:04:22;;;;;;;21.02;15.38;;;;;;;13.23;100.00;100611.41;1707589;83;21530;-71
2021/06/03 03:06:51;;;;;;;25.62;17.37;;;;;;;13.23;100.00;100622.67;1750418;80;21651;-73
2021/06/03 03:09:19;;;;;;;19.07;13.48;;;;;;;13.24;100.00;100603.73;1759790;80;22355;-71
2021/06/03 03:11:48;;;;;;;35.80;24.75;;;;;;;13.24;100.00;100601.53;1751016;80;21106;-71
2021/06/03 03:14:15;;;;;;;32.17;22.62;;;;;;;13.24;100.00;100597.48;1773736;80;21037;-71
2021/06/03 03:16:44;;;;;;;18.92;11.95;;;;;;;13.26;100.00;100610.41;1747374;81;21411;-73
2021/06/03 03:19:10;;;;;;;24.07;15.50;;;;;;;13.23;100.00;100610.55;1746738;82;21746;-73
2021/06/03 03:21:38;;;;;;;22.30;12.50;;;;;;;13.18;100.00;100607.62;1746388;82;21957;-72
2021/06/03 03:24:05;;;;;;;19.05;11.78;;;;;;;13.15;100.00;100615.84;1748678;80;21037;-72
2021/06/03 03:26:32;;;;;;;13.32;9.30;;;;;;;13.11;100.00;100612.88;1748585;80;21048;-73
2021/06/03 03:28:58;;;;;;;20.00;12.23;;;;;;;13.06;100.00;100626.17;1748545;82;21058;-72
2021/06/03 03:31:26;;;;;;;29.48;18.73;;;;;;;13.04;100.00;100615.47;1749387;80;21056;-72
2021/06/03 03:33:56;;;;;;;26.20;16.70;;;;;;;13.01;100.00;100607.55;1747016;80;21490;-71
2021/06/03 03:36:23;;;;;;;30.27;20.48;;;;;;;12.98;100.00;100613.94;1742693;82;21526;-71
2021/06/03 03:38:52;;;;;;;25.20;17.00;;;;;;;12.96;100.00;100612.28;1651477;85;21085;-73
2021/06/03 03:41:18;;;;;;;20.62;14.90;;;;;;;12.96;100.00;100606.90;1742713;82;21083;-72
2021/06/03 03:43:46;;;;;;;18.17;12.23;;;;;;;12.95;100.00;100615.92;1743892;80;21028;-72
2021/06/03 03:46:13;;;;;;;24.00;15.05;;;;;;;12.94;100.00;100606.95;1757774;80;21090;-71
2021/06/03 03:48:42;;;;;;;24.30;15.70;;;;;;;12.92;100.00;100614.69;1782197;80;21581;-71
2021/06/03 03:51:13;;;;;;;33.65;19.45;;;;;;;12.93;100.00;100608.36;1781856;80;21047;-72
2021/06/03 03:53:40;;;;;;;28.55;18.80;;;;;;;12.90;100.00;100603.53;1781482;80;21908;-73
2021/06/03 03:56:09;;;;;;;18.92;11.55;;;;;;;12.92;100.00;100621.41;1782108;80;21101;-73
2021/06/03 03:58:39;;;;;;;9.35;6.20;;;;;;;12.90;100.00;100622.36;1779793;80;21561;-74
2021/06/03 04:01:05;;;;;;;13.55;8.00;;;;;;;12.88;100.00;100635.02;1769332;81;21022;-74
2021/06/03 04:03:32;;;;;;;10.75;5.80;;;;;;;12.88;100.00;100655.69;1712930;83;21088;-74
2021/06/03 04:06:00;;;;;;;11.73;6.55;;;;;;;12.87;100.00;100644.03;1684429;85;21463;-73
2021/06/03 04:08:28;;;;;;;9.45;4.85;;;;;;;12.86;100.00;100646.81;1741480;81;21103;-73
2021/06/03 04:10:55;;;;;;;12.98;7.67;;;;;;;12.84;100.00;100628.53;1745633;82;21494;-74
2021/06/03 04:13:25;;;;;;;18.87;12.98;;;;;;;12.83;100.00;100638.40;1756223;81;21061;-73
2021/06/03 04:15:55;;;;;;;15.05;9.33;;;;;;;12.82;100.00;100651.45;1666529;84;21204;-74
2021/06/03 04:18:22;;;;;;;19.57;13.08;;;;;;;12.81;100.00;100638.95;1737036;81;21088;-73
2021/06/03 04:20:49;;;;;;;8.53;6.00;;;;;;;12.82;100.00;100659.52;1737348;82;22277;-73
2021/06/03 04:23:17;;;;;;;14.35;7.92;;;;;;;12.82;100.00;100673.44;1741583;81;21600;-73
2021/06/03 04:25:46;;;;;;;32.98;21.20;;;;;;;12.80;100.00;100653.34;1745869;82;21419;-73
2021/06/03 04:28:13;;;;;;;24.43;15.08;;;;;;;12.81;100.00;100652.86;1743958;82;21526;-73
2021/06/03 04:30:41;;;;;;;33.95;21.25;;;;;;;12.82;100.00;100653.26;1742349;81;22248;-73
2021/06/03 04:33:09;;;;;;;36.77;23.05;;;;;;;12.85;100.00;100650.45;1685990;84;21573;-73
2021/06/03 04:35:36;;;;;;;25.20;17.12;;;;;;;12.83;100.00;100657.23;1763674;81;22344;-73
2021/06/03 04:38:03;;;;;;;14.18;7.17;;;;;;;12.84;100.00;100681.85;1764086;81;21807;-73
2021/06/03 04:40:30;;;;;;;14.95;9.85;;;;;;;12.82;100.00;100665.36;1714593;83;21117;-73
2021/06/03 04:42:58;;;;;;;23.75;15.90;;;;;;;12.79;100.00;100667.74;1684195;85;21085;-72
2021/06/03 04:45:26;;;;;;;15.93;11.25;;;;;;;12.82;100.00;100671.63;1709531;83;21122;-74
2021/06/03 04:47:53;;;;;;;25.20;16.55;;;;;;;12.84;100.00;100670.23;1709829;83;21144;-73
2021/06/03 04:50:21;;;;;;;17.42;9.70;;;;;;;12.85;100.00;100664.77;1711537;83;21032;-73
2021/06/03 04:52:48;;;;;;;23.47;13.18;;;;;;;12.87;100.00;100679.02;1668726;83;22114;-73
2021/06/03 04:55:20;;;;;;;19.75;10.58;;;;;;;12.86;100.00;100681.30;1708682;83;21055;-74
2021/06/03 04:57:48;;;;;;;17.92;11.83;;;;;;;12.85;100.00;100687.63;1707737;83;21084;-72
2021/06/03 05:00:18;;;;;;;19.73;12.13;;;;;;;12.84;100.00;100687.23;1745187;80;21144;-72
2021/06/03 05:02:45;;;;;;;20.20;13.00;;;;;;;12.84;100.00;100692.61;1770964;80;21064;-74
2021/06/03 05:05:13;;;;;;;28.73;17.85;;;;;;;12.86;100.00;100687.17;1764194;80;21525;-73
2021/06/03 05:07:40;;;;;;;30.57;20.52;;;;;;;12.89;100.00;100688.37;1740354;82;21080;-73
2021/06/03 05:10:08;;;;;;;28.57;18.80;;;;;;;12.94;100.00;100681.45;1740297;82;21036;-72
2021/06/03 05:12:35;;;;;;;24.63;14.40;;;;;;;12.99;100.00;100687.48;1748340;80;21953;-72
2021/06/03 05:15:03;;;;;;;26.73;15.35;;;;;;;13.03;100.00;100689.94;1677913;84;21057;-73
2021/06/03 05:17:30;;;;;;;26.73;16.50;;;;;;;13.08;100.00;100680.80;1677587;85;21118;-72
2021/06/03 05:19:58;;;;;;;17.65;9.28;;;;;;;13.10;100.00;100686.50;1677483;85;21048;-73
2021/06/03 05:22:26;;;;;;;21.20;12.73;;;;;;;13.15;100.00;100699.29;1677268;85;21140;-72
2021/06/03 05:24:53;;;;;;;9.78;4.30;;;;;;;13.16;100.00;100697.45;1677430;85;21074;-72
2021/06/03 05:27:20;;;;;;;6.65;3.70;;;;;;;13.15;100.00;100692.56;1740195;82;21032;-72
2021/06/03 05:29:47;;;;;;;6.62;3.90;;;;;;;13.17;100.00;100693.36;1742226;80;21033;-71
2021/06/03 05:32:14;;;;;;;9.95;4.00;;;;;;;13.22;100.00;100707.07;1740284;81;21033;-71
2021/06/03 05:34:41;;;;;;;9.18;4.53;;;;;;;13.20;100.00;100695.50;1753648;80;21013;-70
2021/06/03 05:37:07;;;;;;;18.00;10.53;;;;;;;13.22;100.00;100701.69;1771003;80;21126;-71
2021/06/03 05:39:35;;;;;;;7.58;4.03;;;;;;;13.25;100.00;100705.58;1746470;80;21120;-70
2021/06/03 05:42:02;;;;;;;5.05;3.77;;;;;;;13.28;100.00;100705.42;1747258;80;21028;-73
2021/06/03 05:44:29;;;;;;;10.55;4.30;;;;;;;13.30;100.00;100715.65;1748357;80;21338;-72
2021/06/03 05:46:56;;;;;;;10.18;4.28;;;;;;;13.31;100.00;100703.48;1753924;80;21092;-72
2021/06/03 05:49:25;;;;;;;12.82;7.47;;;;;;;13.33;100.00;100704.27;1766469;80;21156;-72
2021/06/03 05:51:52;;;;;;;10.05;3.95;;;;;;;13.35;100.00;100706.88;1743698;80;21044;-72
2021/06/03 05:54:19;;;;;;;10.00;5.37;;;;;;;13.36;100.00;100706.41;1736147;81;21076;-73
2021/06/03 05:56:46;;;;;;;12.13;4.47;;;;;;;13.35;100.00;100708.22;1748132;80;21009;-68
2021/06/03 05:59:13;;;;;;;21.15;10.15;;;;;;;13.32;100.00;100725.88;1742764;82;21033;-71
2021/06/03 06:01:40;;;;;;;17.60;9.45;;;;;;;13.29;100.00;100720.63;1748679;80;21143;-73
2021/06/03 06:06:34;;;;;;;14.95;11.15;;;;;;;13.38;100.00;100709.45;1750719;80;21414;-73
2021/06/03 06:09:06;;;;;;;19.02;12.10;;;;;;;13.48;100.00;100713.07;1733457;80;21001;-70
2021/06/03 06:11:37;;;;;;;26.82;18.70;;;;;;;13.55;100.00;100707.78;1760918;80;21053;-72
2021/06/03 06:14:25;;;;;;;33.15;18.67;;;;;;;13.62;100.00;100711.94;1726899;80;21134;-70
2021/06/03 06:16:52;;;;;;;24.40;15.85;;;;;;;13.70;100.00;100716.47;1791095;78;21568;-73
2021/06/03 06:19:43;;;;;;;26.85;16.97;;;;;;;13.77;100.00;100712.13;1787815;78;21046;-73
2021/06/03 06:22:12;;;;;;;29.27;18.92;;;;;;;13.80;100.00;100717.36;1789718;78;21401;-73
2021/06/03 06:24:41;;;;;;;30.43;18.92;;;;;;;13.83;100.00;100722.13;1758246;79;21133;-71
2021/06/03 06:27:09;;;;;;;24.67;13.30;;;;;;;13.85;100.00;100727.45;1784139;78;21772;-72
2021/06/03 06:29:37;;;;;;;21.77;6.80;;;;;;;13.86;100.00;100728.71;1734262;80;21302;-72
2021/06/03 06:32:05;;;;;;;16.60;8.85;;;;;;;13.82;100.00;100731.66;1792094;78;21051;-73
2021/06/03 06:34:33;;;;;;;19.90;12.43;;;;;;;13.84;100.00;100745.92;1793580;78;21023;-69
2021/06/03 06:36:59;;;;;;;14.43;7.97;;;;;;;13.86;100.00;100742.67;1792676;78;21047;-73
2021/06/03 06:39:26;;;;;;;11.83;7.28;;;;;;;13.86;100.00;100752.97;1789046;78;21603;-73
2021/06/03 06:41:53;;;;;;;12.70;4.78;;;;;;;13.90;100.00;100746.96;1798694;78;21318;-70
2021/06/03 06:44:20;;;;;;;15.85;8.55;;;;;;;13.91;100.00;100754.09;1798868;78;21025;-72
2021/06/03 06:46:47;;;;;;;9.10;5.80;;;;;;;13.97;100.00;100748.40;1792347;78;21436;-71
2021/06/03 06:49:16;;;;;;;14.40;6.80;;;;;;;13.98;100.00;100758.72;1793908;79;20907;-73
2021/06/03 06:51:42;;;;;;;13.28;8.90;;;;;;;14.04;100.00;100756.60;1785394;78;22078;-71
2021/06/03 06:54:09;;;;;;;9.45;4.67;;;;;;;14.08;100.00;100781.56;1796493;78;21069;-72
2021/06/03 06:56:37;;;;;;;9.53;3.27;;;;;;;14.12;100.00;100783.64;1793299;78;21265;-74
2021/06/03 06:59:04;;;;;;;9.03;4.03;;;;;;;14.13;100.00;100761.98;1798722;78;21530;-68
2021/06/03 07:01:30;;;;;;;8.55;5.15;;;;;;;14.19;100.00;100762.16;1767963;79;21094;-72
2021/06/03 07:03:57;;;;;;;14.38;4.10;;;;;;;14.19;100.00;100763.50;1769152;79;21097;-73
2021/06/03 07:06:24;;;;;;;10.80;4.47;;;;;;;14.18;100.00;100783.33;1758815;80;21084;-70
2021/06/03 07:08:52;;;;;;;11.70;5.03;;;;;;;14.20;100.00;100778.73;1761498;80;20955;-70
2021/06/03 07:11:20;;;;;;;5.62;3.70;;;;;;;14.21;100.00;100777.78;1759159;80;21604;-70
2021/06/03 07:13:47;;;;;;;7.67;3.42;;;;;;;14.23;100.00;100779.92;1763749;80;21376;-74
2021/06/03 07:16:16;;;;;;;13.88;3.60;;;;;;;14.29;100.00;100782.80;1769216;80;21524;-72
2021/06/03 07:18:44;;;;;;;11.60;6.17;;;;;;;14.28;100.00;100771.16;1762542;80;21364;-70
2021/06/03 07:21:11;;;;;;;19.05;8.40;;;;;;;14.30;100.00;100777.34;1768150;79;20946;-73
2021/06/03 07:23:38;;;;;;;27.50;13.28;;;;;;;14.30;100.00;100784.08;1769181;79;20955;-66
2021/06/03 07:26:05;;;;;;;18.45;8.55;;;;;;;14.37;100.00;100766.23;1768649;80;20952;-64
2021/06/03 07:28:32;;;;;;;24.18;14.55;;;;;;;14.39;100.00;100777.81;1768775;80;21588;-65
2021/06/03 07:30:59;;;;;;;20.40;13.08;;;;;;;14.48;100.00;100784.11;1777383;79;21055;-64
2021/06/03 07:33:25;;;;;;;32.03;15.98;;;;;;;14.57;100.00;100776.88;1770908;80;21071;-64
2021/06/03 07:35:53;;;;;;;30.68;16.60;;;;;;;14.68;100.00;100771.39;1773356;79;22159;-63
2021/06/03 07:38:19;;;;;;;29.35;10.75;;;;;;;14.70;100.00;100788.37;1770529;79;21008;-64
2021/06/03 07:40:46;;;;;;;16.10;10.93;;;;;;;14.77;100.00;100795.25;1769591;79;21124;-59
2021/06/03 07:43:13;;;;;;;19.62;9.18;;;;;;;14.84;100.00;100786.36;1755831;80;21493;-63
2021/06/03 07:45:41;;;;;;;28.35;15.38;;;;;;;14.93;100.00;100795.80;1753940;79;21027;-62
2021/06/03 07:48:09;;;;;;;23.92;15.08;;;;;;;14.98;100.00;100790.53;1757185;80;21015;-64
2021/06/03 07:50:36;;;;;;;19.65;10.40;;;;;;;15.03;97.77;100788.95;1755475;80;21026;-63
2021/06/03 07:53:03;;;;;;;20.88;11.68;;;;;;;15.04;95.80;100793.39;1754885;80;21896;-65
2021/06/03 07:55:30;;;;;;;24.67;15.88;;;;;;;15.11;96.77;100796.15;1761474;79;21106;-65
2021/06/03 07:57:59;;;;;;;12.65;8.33;;;;;;;15.17;98.19;100790.45;1769510;79;21131;-63
2021/06/03 08:00:28;;;;;;;6.37;4.80;;;;;;;15.28;97.14;100790.33;1774757;80;21140;-64
2021/06/03 08:02:54;;;;;;;20.55;15.18;;;;;;;15.33;93.09;100807.15;1775489;80;21072;-65
2021/06/03 08:05:22;;;;;;;24.75;16.25;;;;;;;15.38;93.82;100802.86;1771870;80;22038;-64
2021/06/03 08:07:48;;;;;;;16.82;10.00;;;;;;;15.47;95.53;100799.17;1766929;79;21222;-64
2021/06/03 08:10:18;;;;;;;24.30;13.65;;;;;;;15.53;92.98;100797.09;1764315;80;21071;-65
2021/06/03 08:12:49;;;;;;;22.70;13.13;;;;;;;15.59;95.01;100799.47;1775378;79;20893;-64
2021/06/03 08:15:14;;;;;;;25.02;15.72;;;;;;;15.70;95.84;100805.14;1767671;79;21019;-63
2021/06/03 08:17:43;;;;;;;13.10;4.78;;;;;;;15.79;94.26;100801.52;1737854;81;21511;-64
2021/06/03 08:20:16;;;;;;;16.40;10.23;;;;;;;15.82;89.68;100825.20;1728293;82;21094;-65
2021/06/03 08:22:43;;;;;;;18.00;9.95;;;;;;;15.84;88.15;100809.77;1721295;82;21572;-57
2021/06/03 08:25:14;;;;;;;14.78;6.90;;;;;;;15.94;88.38;100806.09;1722870;81;21533;-58
2021/06/03 08:27:44;;;;;;;10.80;5.00;;;;;;;16.02;87.34;100815.98;1719563;82;21011;-58
2021/06/03 08:30:13;;;;;;;8.25;4.37;;;;;;;16.13;84.73;100817.22;1706351;82;21044;-59
2021/06/03 08:32:52;;;;;;;14.18;8.30;;;;;;;16.17;84.16;100814.72;1726742;81;21055;-58
2021/06/03 08:35:24;;;;;;;14.40;7.42;;;;;;;16.22;85.23;100819.38;1656324;83;21068;-58
2021/06/03 08:37:55;;;;;;;20.75;11.43;;;;;;;16.24;82.92;100817.45;1709407;82;21653;-58
2021/06/03 08:40:26;;;;;;;10.80;5.00;;;;;;;16.26;83.16;100831.80;1728248;82;21162;-57
2021/06/03 08:42:56;;;;;;;8.93;4.72;;;;;;;16.29;83.66;100831.61;1726596;81;21163;-58
2021/06/03 08:45:24;;;;;;;23.38;9.28;;;;;;;16.37;82.46;100822.16;1729106;81;21625;-60
2021/06/03 08:47:53;;;;;;;18.92;11.57;;;;;;;16.48;83.48;100827.84;1728284;81;21047;-60
2021/06/03 08:50:21;;;;;;;14.93;9.75;;;;;;;16.59;82.89;100822.64;1732301;82;21138;-60
2021/06/03 08:52:51;;;;;;;10.88;6.47;;;;;;;16.71;80.75;100824.25;1733122;81;21110;-60
2021/06/03 08:58:08;;;;;;;14.00;5.85;;;;;;;16.88;82.70;100819.16;1723640;81;21530;-59
2021/06/03 09:00:35;;;;;;;12.00;7.55;;;;;;;16.90;82.88;100808.61;1721891;81;21546;-61
2021/06/03 09:03:02;;;;;;;10.95;6.03;;;;;;;16.97;82.44;100821.80;1730159;81;21035;-60
2021/06/03 09:05:28;;;;;;;10.90;3.20;;;;;;;17.03;83.96;100806.55;1725116;81;21341;-60
2021/06/03 09:07:55;;;;;;;10.00;3.12;;;;;;;17.12;78.75;100827.64;1741573;81;21939;-60
2021/06/03 09:10:34;;;;;;;11.85;5.55;;;;;;;17.13;75.09;100819.93;1725887;82;21102;-58
2021/06/03 09:13:19;;;;;;;9.60;5.87;;;;;;;17.14;77.17;100821.67;1727359;82;21559;-58
2021/06/03 09:15:49;;;;;;;;;;;;;;;17.18;80.46;100813.73;1734135;80;21532;-59
2021/06/03 09:18:17;;;;;;;9.38;2.72;;;;;;;17.24;80.39;100818.38;1737548;80;20340;-60
2021/06/03 09:20:46;;;;;;;10.58;3.90;;;;;;;17.24;76.84;100811.61;1737935;81;20932;-58
2021/06/03 09:23:31;;;;;;;10.13;5.97;;;;;;;17.26;79.84;100805.61;1729444;81;21000;-59
2021/06/03 09:26:01;;;;;;;12.93;9.40;;;;;;;17.29;75.59;100823.91;1728533;81;21032;-63
2021/06/03 09:28:35;;;;;;;11.83;6.37;;;;;;;17.36;76.41;100823.05;1759923;80;20964;-62
2021/06/03 09:31:16;;;;;;;17.10;9.78;;;;;;;17.42;77.92;100805.04;1720356;81;21074;-58
2021/06/03 09:34:13;;;;;;;21.02;10.32;;;;;;;17.51;81.68;100817.14;1751862;80;21929;-59
2021/06/03 09:36:54;;;;;;;11.28;7.83;;;;;;;17.62;76.57;100804.26;1761106;80;21103;-59
2021/06/03 09:39:25;;;;;;;9.00;2.50;;;;;;;17.73;77.71;100803.06;1720394;81;22583;-59
2021/06/03 09:42:06;;;;;;;7.83;3.98;;;;;;;17.74;69.91;100818.36;1745606;80;21517;-58
2021/06/03 09:44:49;;;;;;;7.37;3.87;;;;;;;17.73;74.02;100810.34;1764207;80;21532;-63
2021/06/03 09:47:19;;;;;;;9.10;5.33;;;;;;;17.69;70.34;100817.80;1727765;82;21668;-60
2021/06/03 09:49:57;;;;;;;19.10;7.42;;;;;;;17.72;74.78;100805.89;1761492;80;21920;-61
2021/06/03 09:52:33;;;;;;;17.95;10.30;;;;;;;17.78;79.09;100807.31;1754474;80;21501;-60
2021/06/03 09:55:07;;;;;;;10.30;6.25;;;;;;;17.86;80.56;100800.93;1753253;81;21112;-61
2021/06/03 09:57:36;;;;;;;9.50;4.40;;;;;;;17.92;79.40;100802.38;1760089;80;21110;-61
2021/06/03 10:00:19;;;;;;;19.90;6.40;;;;;;;17.93;77.00;100797.34;1765840;80;21572;-61
2021/06/03 10:02:46;;;;;;;14.65;8.43;;;;;;;17.93;81.54;100800.91;1712491;81;21516;-62
2021/06/03 10:05:19;;;;;;;11.57;7.28;;;;;;;17.96;82.31;100797.98;1761771;80;21095;-61
2021/06/03 10:08:05;;;;;;;9.50;4.33;;;;;;;18.00;84.50;100795.45;1715842;81;21079;-61
2021/06/03 10:10:34;;;;;;;29.18;6.00;;;;;;;18.01;79.55;100797.22;1756503;80;21385;-62
2021/06/03 10:13:10;;;;;;;11.80;5.60;;;;;;;18.01;81.41;100796.34;1766159;79;20896;-62
2021/06/03 10:15:43;;;;;;;8.50;3.05;;;;;;;17.99;81.40;100793.71;1760739;80;21439;-61
2021/06/03 10:18:15;;;;;;;16.37;5.72;;;;;;;17.93;75.67;100791.41;1746584;81;21402;-62
2021/06/03 10:20:56;;;;;;;10.20;4.87;;;;;;;17.89;80.10;100792.59;1751046;80;20985;-61
2021/06/03 10:23:31;;;;;;;6.70;3.00;;;;;;;17.85;80.09;100792.41;1739760;80;21007;-61
2021/06/03 10:26:05;;;;;;;18.45;5.08;;;;;;;17.83;79.18;100794.36;1753137;80;21457;-62
2021/06/03 10:28:34;;;;;;;5.65;2.87;;;;;;;17.82;82.32;100798.03;1740057;81;20970;-60
2021/06/03 10:31:08;;;;;;;17.65;8.38;;;;;;;17.76;78.82;100801.51;1738116;81;21034;-59
2021/06/03 10:33:36;;;;;;;17.62;9.28;;;;;;;17.74;79.14;100803.45;1740629;81;21094;-58
2021/06/03 10:36:06;;;;;;;14.45;8.53;;;;;;;17.79;80.78;100809.94;1747678;81;21096;-61
2021/06/03 10:38:32;;;;;;;4.58;3.12;;;;;;;17.79;70.26;100822.14;1710583;81;22204;-61
2021/06/03 10:41:05;;;;;;;7.15;2.87;;;;;;;17.86;69.20;100817.20;1744858;81;21032;-64
2021/06/03 10:43:36;;;;;;;8.20;2.90;;;;;;;17.94;69.24;100814.00;1750231;81;21098;-63
2021/06/03 10:46:05;;;;;;;7.75;2.55;;;;;;;18.00;70.80;100814.44;1739339;81;21070;-63
2021/06/03 10:48:33;;;;;;;9.25;2.42;;;;;;;18.02;64.62;100819.81;1748660;80;20974;-62
2021/06/03 10:51:07;;;;;;;6.92;3.67;;;;;;;18.07;66.20;100824.44;1716005;82;21545;-62
2021/06/03 10:53:46;;;;;;;9.55;5.20;;;;;;;18.13;68.23;100821.35;1743077;80;21062;-63
2021/06/03 10:56:18;;;;;;;9.30;2.45;;;;;;;18.16;65.71;100821.14;1737482;80;20945;-61
2021/06/03 10:58:48;;;;;;;6.95;1.70;;;;;;;18.17;60.42;100876.27;1734721;80;21141;-59
2021/06/03 11:01:19;;;;;;;8.98;2.70;;;;;;;18.20;62.66;100827.22;1742643;80;20936;-60
2021/06/03 11:03:50;;;;;;;11.57;3.17;;;;;;;18.21;62.63;100818.10;1738799;80;22800;-59
2021/06/03 11:06:23;;;;;;;11.70;2.70;;;;;;;18.24;62.87;100837.39;1733421;81;20955;-61
2021/06/03 11:09:03;;;;;;;16.90;3.20;;;;;;;18.26;61.70;100839.05;1740826;80;21023;-59
2021/06/03 11:11:47;;;;;;;14.98;3.65;;;;;;;18.33;65.51;100833.58;1727758;81;20979;-61
2021/06/03 11:14:19;;;;;;;7.25;3.45;;;;;;;18.38;66.02;100831.05;1740098;80;21366;-58
2021/06/03 11:16:57;;;;;;;13.93;4.50;;;;;;;18.42;65.97;100828.50;1742936;79;21718;-61
2021/06/03 11:19:26;;;;;;;12.37;4.75;;;;;;;18.45;65.98;100831.00;1760223;79;21063;-62
2021/06/03 11:22:02;;;;;;;10.30;3.60;;;;;;;18.43;63.28;100840.63;1762771;79;21107;-58
2021/06/03 11:24:38;;;;;;;7.17;2.40;;;;;;;18.42;62.88;100843.43;1732889;80;21505;-59
2021/06/03 11:27:10;;;;;;;10.93;5.20;;;;;;;18.39;60.87;100845.00;1733818;79;20913;-59
2021/06/03 11:29:54;;;;;;;23.38;3.83;;;;;;;18.36;60.84;100815.34;1763546;79;21075;-60